createdAt,value
2022-11-15T00:00:55.054Z,9.8
2022-11-15T00:01:55.149Z,9.8
2022-11-15T00:02:55.126Z,9.8
2022-11-15T00:03:55.110Z,9.8
2022-11-15T00:04:55.138Z,9.8
2022-11-15T00:05:55.212Z,9.8
2022-11-15T00:06:55.285Z,9.8
2022-11-15T00:07:56.260Z,9.8
2022-11-15T00:08:55.434Z,9.8
2022-11-15T00:09:55.474Z,9.8
2022-11-15T00:10:55.459Z,9.8
2022-11-15T00:11:55.531Z,9.8
2022-11-15T00:12:55.614Z,9.8
2022-11-15T00:13:55.711Z,9.8
2022-11-15T00:14:55.758Z,9.8
2022-11-15T00:15:56.014Z,9.8
2022-11-15T00:16:55.874Z,9.9
2022-11-15T00:17:55.952Z,9.8
2022-11-15T00:18:56.152Z,9.8
2022-11-15T00:19:56.060Z,9.8
2022-11-15T00:20:56.218Z,9.8
2022-11-15T00:21:56.376Z,9.8
2022-11-15T00:22:56.317Z,9.8
2022-11-15T00:23:56.355Z,9.8
2022-11-15T00:24:56.454Z,9.8
2022-11-15T00:25:56.484Z,9.8
2022-11-15T00:26:56.496Z,9.8
2022-11-15T00:27:56.519Z,9.8
2022-11-15T00:28:56.577Z,9.8
2022-11-15T00:30:01.579Z,9.8
2022-11-15T00:30:56.604Z,9.8
2022-11-15T00:31:56.684Z,9.8
2022-11-15T00:32:56.671Z,9.8
2022-11-15T00:33:56.673Z,9.8
2022-11-15T00:34:56.696Z,9.8
2022-11-15T00:35:56.798Z,9.8
2022-11-15T00:36:56.792Z,9.8
2022-11-15T00:38:01.816Z,9.8
2022-11-15T00:38:56.837Z,9.8
2022-11-15T00:39:56.917Z,9.8
2022-11-15T00:40:56.940Z,9.8
2022-11-15T00:41:57.101Z,9.8
2022-11-15T00:42:56.970Z,9.9
2022-11-15T00:43:56.955Z,9.9
2022-11-15T00:44:56.981Z,10
2022-11-15T00:45:57.028Z,10
2022-11-15T00:46:57.021Z,10
2022-11-15T00:47:57.132Z,9.9
2022-11-15T00:48:57.084Z,9.9
2022-11-15T00:49:57.159Z,9.9
2022-11-15T00:50:57.179Z,9.9
2022-11-15T00:51:57.218Z,9.9
2022-11-15T00:52:57.164Z,10
2022-11-15T00:53:57.229Z,10
2022-11-15T00:54:57.265Z,10
2022-11-15T00:55:57.303Z,10
2022-11-15T00:56:57.321Z,10
2022-11-15T00:57:57.411Z,10
2022-11-15T00:58:57.387Z,10
2022-11-15T00:59:57.426Z,10
2022-11-15T01:00:57.567Z,10
2022-11-15T01:01:57.563Z,10
2022-11-15T01:02:57.570Z,10
2022-11-15T01:04:54.446Z,10
2022-11-15T01:05:46.829Z,10
2022-11-15T01:05:57.844Z,10
2022-11-15T01:06:57.970Z,10
2022-11-15T01:07:57.704Z,10
2022-11-15T01:08:57.772Z,10
2022-11-15T01:09:57.807Z,10
2022-11-15T01:11:02.951Z,10.1
2022-11-15T01:11:57.871Z,10.1
2022-11-15T01:12:58.023Z,10.1
2022-11-15T01:14:04.280Z,10.1
2022-11-15T01:15:00.786Z,10.1
2022-11-15T01:15:58.061Z,10.1
2022-11-15T01:16:58.205Z,10.1
2022-11-15T01:17:58.111Z,10.1
2022-11-15T01:18:58.134Z,10.2
2022-11-15T01:20:00.474Z,10.2
2022-11-15T01:20:58.525Z,10.2
2022-11-15T01:21:58.395Z,10.2
2022-11-15T01:22:59.546Z,10.2
2022-11-15T01:23:58.551Z,10.2
2022-11-15T01:25:04.892Z,10.2
2022-11-15T01:25:58.694Z,10.3
2022-11-15T01:26:58.745Z,10.3
2022-11-15T01:27:58.853Z,10.3
2022-11-15T01:29:00.117Z,10.3
2022-11-15T01:30:03.913Z,10.3
2022-11-15T01:31:04.406Z,10.3
2022-11-15T01:31:59.093Z,10.3
2022-11-15T01:32:59.203Z,10.3
2022-11-15T01:33:59.194Z,10.3
2022-11-15T01:35:02.517Z,10.3
2022-11-15T01:35:59.372Z,10.3
2022-11-15T01:36:59.704Z,10.3
2022-11-15T01:38:00.137Z,10.3
2022-11-15T01:39:00.567Z,10.3
2022-11-15T01:39:59.769Z,10.3
2022-11-15T01:41:00.991Z,10.3
2022-11-15T01:41:59.654Z,10.3
2022-11-15T01:42:59.693Z,10.3
2022-11-15T01:44:35.194Z,10.3
2022-11-15T01:45:17.570Z,10.3
2022-11-15T01:45:18.507Z,10.3
2022-11-15T01:46:02.754Z,10.3
2022-11-15T01:47:00.849Z,10.3
2022-11-15T01:48:20.449Z,10.3
2022-11-15T01:48:59.769Z,10.3
2022-11-15T01:50:22.638Z,10.3
2022-11-15T01:50:59.919Z,10.3
2022-11-15T01:52:16.455Z,10.3
2022-11-15T01:53:09.911Z,10.3
2022-11-15T01:54:07.611Z,10.3
2022-11-15T01:55:00.053Z,10.3
2022-11-15T01:56:02.713Z,10.3
2022-11-15T01:57:00.015Z,10.3
2022-11-15T01:58:01.751Z,10.3
2022-11-15T01:59:00.156Z,10.3
2022-11-15T02:00:04.456Z,10.3
2022-11-15T02:01:00.156Z,10.3
2022-11-15T02:02:04.916Z,10.3
2022-11-15T02:03:00.248Z,10.3
2022-11-15T02:04:00.218Z,10.3
2022-11-15T02:05:02.212Z,10.3
2022-11-15T02:06:00.302Z,10.3
2022-11-15T02:07:00.377Z,10.3
2022-11-15T02:08:02.951Z,10.3
2022-11-15T02:09:00.394Z,10.3
2022-11-15T02:10:08.269Z,10.3
2022-11-15T02:11:00.456Z,10.4
2022-11-15T02:12:10.600Z,10.4
2022-11-15T02:13:00.557Z,10.4
2022-11-15T02:14:14.824Z,10.4
2022-11-15T02:15:00.561Z,10.3
2022-11-15T02:16:11.479Z,10.3
2022-11-15T02:17:00.635Z,10.3
2022-11-15T02:18:07.173Z,10.3
2022-11-15T02:19:00.943Z,10.3
2022-11-15T02:20:00.720Z,10.4
2022-11-15T02:21:00.728Z,10.3
2022-11-15T02:22:00.861Z,10.3
2022-11-15T02:23:10.000Z,10.3
2022-11-15T02:24:08.277Z,10.3
2022-11-15T02:25:00.857Z,10.4
2022-11-15T02:26:02.583Z,10.4
2022-11-15T02:27:00.879Z,10.4
2022-11-15T02:28:02.659Z,10.4
2022-11-15T02:29:01.524Z,10.4
2022-11-15T02:30:02.954Z,10.4
2022-11-15T02:31:01.103Z,10.4
2022-11-15T02:32:08.360Z,10.4
2022-11-15T02:33:01.181Z,10.4
2022-11-15T02:34:07.581Z,10.4
2022-11-15T02:35:01.303Z,10.4
2022-11-15T02:36:02.587Z,10.4
2022-11-15T02:37:01.783Z,10.4
2022-11-15T02:38:01.547Z,10.4
2022-11-15T02:39:01.625Z,10.4
2022-11-15T02:40:01.862Z,10.4
2022-11-15T02:41:03.227Z,10.4
2022-11-15T02:42:03.141Z,10.4
2022-11-15T02:43:05.700Z,10.4
2022-11-15T02:44:08.859Z,10.5
2022-11-15T02:45:02.859Z,10.5
2022-11-15T02:46:01.987Z,10.5
2022-11-15T02:47:02.324Z,10.5
2022-11-15T02:48:02.023Z,10.5
2022-11-15T02:49:02.086Z,10.5
2022-11-15T02:50:03.774Z,10.5
2022-11-15T02:51:02.169Z,10.5
2022-11-15T02:52:02.201Z,10.5
2022-11-15T02:53:02.295Z,10.5
2022-11-15T02:54:02.305Z,10.5
2022-11-15T02:55:02.358Z,10.5
2022-11-15T02:56:02.412Z,10.5
2022-11-15T02:57:02.404Z,10.6
2022-11-15T02:58:02.407Z,10.6
2022-11-15T02:59:02.443Z,10.6
2022-11-15T03:00:02.488Z,10.6
2022-11-15T03:01:02.573Z,10.7
2022-11-15T03:02:03.507Z,10.7
2022-11-15T03:03:02.622Z,10.7
2022-11-15T03:04:02.588Z,10.7
2022-11-15T03:05:02.668Z,10.7
2022-11-15T03:06:02.687Z,10.6
2022-11-15T03:07:02.792Z,10.6
2022-11-15T03:08:03.644Z,10.7
2022-11-15T03:09:02.831Z,10.8
2022-11-15T03:10:02.889Z,10.8
2022-11-15T03:11:06.449Z,10.8
2022-11-15T03:12:03.086Z,10.8
2022-11-15T03:13:03.011Z,10.8
2022-11-15T03:14:15.807Z,10.8
2022-11-15T03:15:03.005Z,10.8
2022-11-15T03:16:03.008Z,10.8
2022-11-15T03:17:06.470Z,10.8
2022-11-15T03:18:03.078Z,10.8
2022-11-15T03:19:03.125Z,10.8
2022-11-15T03:20:03.171Z,10.8
2022-11-15T03:21:03.231Z,10.8
2022-11-15T03:22:03.285Z,10.8
2022-11-15T03:23:03.278Z,10.8
2022-11-15T03:24:09.589Z,10.9
2022-11-15T03:25:03.435Z,10.9
2022-11-15T03:26:06.922Z,10.9
2022-11-15T03:27:03.373Z,10.9
2022-11-15T03:28:03.750Z,10.9
2022-11-15T03:29:03.485Z,10.9
2022-11-15T03:30:03.554Z,10.9
2022-11-15T03:31:03.593Z,10.9
2022-11-15T03:32:03.675Z,10.9
2022-11-15T03:33:03.607Z,10.9
2022-11-15T03:34:05.085Z,10.9
2022-11-15T03:35:03.674Z,10.9
2022-11-15T03:36:03.949Z,10.9
2022-11-15T03:37:03.739Z,10.9
2022-11-15T03:38:08.816Z,10.9
2022-11-15T03:39:03.799Z,10.9
2022-11-15T03:40:05.948Z,10.9
2022-11-15T03:41:03.855Z,11
2022-11-15T03:42:03.943Z,10.9
2022-11-15T03:43:03.924Z,10.9
2022-11-15T03:44:24.195Z,10.9
2022-11-15T03:45:04.238Z,10.9
2022-11-15T03:46:04.213Z,10.9
2022-11-15T03:47:04.438Z,10.9
2022-11-15T03:48:04.495Z,10.9
2022-11-15T03:49:04.555Z,10.9
2022-11-15T03:50:06.811Z,10.9
2022-11-15T03:51:04.608Z,10.9
2022-11-15T03:52:04.651Z,10.9
2022-11-15T03:53:04.701Z,10.9
2022-11-15T03:54:04.772Z,10.9
2022-11-15T03:55:04.831Z,10.9
2022-11-15T03:56:04.901Z,10.9
2022-11-15T03:57:10.003Z,10.9
2022-11-15T03:58:05.042Z,10.9
2022-11-15T03:59:09.414Z,10.9
2022-11-15T04:00:05.405Z,10.9
2022-11-15T04:01:05.276Z,10.9
2022-11-15T04:02:05.253Z,10.9
2022-11-15T04:03:05.317Z,10.9
2022-11-15T04:04:05.283Z,10.9
2022-11-15T04:05:05.323Z,10.9
2022-11-15T04:06:05.690Z,10.9
2022-11-15T04:07:05.457Z,10.9
2022-11-15T04:08:05.443Z,10.9
2022-11-15T04:09:05.495Z,10.9
2022-11-15T04:10:05.503Z,10.9
2022-11-15T04:11:05.655Z,10.9
2022-11-15T04:12:10.568Z,10.9
2022-11-15T04:13:05.653Z,10.9
2022-11-15T04:14:06.839Z,10.9
2022-11-15T04:15:05.677Z,10.9
2022-11-15T04:16:05.779Z,10.9
2022-11-15T04:17:09.402Z,10.9
2022-11-15T04:18:05.764Z,10.9
2022-11-15T04:19:06.782Z,10.9
2022-11-15T04:20:13.939Z,10.8
2022-11-15T04:21:06.161Z,10.8
2022-11-15T04:22:12.927Z,10.8
2022-11-15T04:23:09.866Z,10.8
2022-11-15T04:24:32.642Z,10.8
2022-11-15T04:25:06.027Z,10.8
2022-11-15T04:26:15.262Z,10.8
2022-11-15T04:27:06.073Z,10.8
2022-11-15T04:28:11.503Z,10.8
2022-11-15T04:29:15.067Z,10.7
2022-11-15T04:31:41.187Z,10.6
2022-11-15T04:32:34.330Z,10.6
2022-11-15T04:33:06.230Z,10.6
2022-11-15T04:34:06.306Z,10.6
2022-11-15T04:35:06.327Z,10.6
2022-11-15T04:36:06.405Z,10.6
2022-11-15T04:37:06.692Z,10.5
2022-11-15T04:38:06.468Z,10.4
2022-11-15T04:39:06.451Z,10.5
2022-11-15T04:40:06.492Z,10.6
2022-11-15T04:41:06.567Z,10.5
2022-11-15T04:42:06.545Z,10.5
2022-11-15T04:43:06.585Z,10.4
2022-11-15T04:44:06.644Z,10.4
2022-11-15T04:45:08.411Z,10.5
2022-11-15T04:46:06.684Z,10.5
2022-11-15T04:47:07.138Z,10.5
2022-11-15T04:48:06.962Z,10.5
2022-11-15T04:49:06.807Z,10.4
2022-11-15T04:50:08.372Z,10.4
2022-11-15T04:51:24.373Z,10.4
2022-11-15T04:52:06.909Z,10.4
2022-11-15T04:53:06.924Z,10.4
2022-11-15T04:54:06.965Z,10.4
2022-11-15T04:55:08.378Z,10.4
2022-11-15T04:56:09.085Z,10.5
2022-11-15T04:57:07.266Z,10.5
2022-11-15T04:58:07.350Z,10.5
2022-11-15T04:59:07.333Z,10.5
2022-11-15T05:00:07.454Z,10.5
2022-11-15T05:01:07.486Z,10.6
2022-11-15T05:02:07.671Z,10.6
2022-11-15T05:03:07.571Z,10.6
2022-11-15T05:04:07.633Z,10.6
2022-11-15T05:05:07.665Z,10.6
2022-11-15T05:06:07.745Z,10.6
2022-11-15T05:07:07.880Z,10.6
2022-11-15T05:08:07.884Z,10.6
2022-11-15T05:09:07.883Z,10.6
2022-11-15T05:10:07.967Z,10.6
2022-11-15T05:11:08.041Z,10.6
2022-11-15T05:12:08.089Z,10.6
2022-11-15T05:13:08.202Z,10.6
2022-11-15T05:14:08.169Z,10.5
2022-11-15T05:15:08.183Z,10.5
2022-11-15T05:16:08.235Z,10.6
2022-11-15T05:17:08.293Z,10.6
2022-11-15T05:18:08.317Z,10.5
2022-11-15T05:19:08.366Z,10.5
2022-11-15T05:20:08.372Z,10.5
2022-11-15T05:21:08.395Z,10.5
2022-11-15T05:22:08.453Z,10.5
2022-11-15T05:23:08.493Z,10.6
2022-11-15T05:24:08.508Z,10.5
2022-11-15T05:25:08.531Z,10.6
2022-11-15T05:26:09.423Z,10.6
2022-11-15T05:27:08.593Z,10.6
2022-11-15T05:28:08.602Z,10.6
2022-11-15T05:29:08.651Z,10.6
2022-11-15T05:30:08.692Z,10.6
2022-11-15T05:31:08.723Z,10.6
2022-11-15T05:32:08.757Z,10.6
2022-11-15T05:33:08.806Z,10.6
2022-11-15T05:34:08.975Z,10.6
2022-11-15T05:35:09.048Z,10.7
2022-11-15T05:36:08.890Z,10.7
2022-11-15T05:37:08.996Z,10.7
2022-11-15T05:38:08.966Z,10.7
2022-11-15T05:39:09.413Z,10.7
2022-11-15T05:40:09.012Z,10.6
2022-11-15T05:41:09.043Z,10.7
2022-11-15T05:42:09.135Z,10.6
2022-11-15T05:43:09.126Z,10.6
2022-11-15T05:44:09.140Z,10.6
2022-11-15T05:45:09.201Z,10.6
2022-11-15T05:46:09.209Z,10.6
2022-11-15T05:47:09.311Z,10.6
2022-11-15T05:48:09.473Z,10.6
2022-11-15T05:49:09.371Z,10.5
2022-11-15T05:50:14.476Z,10.5
2022-11-15T05:51:09.387Z,10.5
2022-11-15T05:52:14.982Z,10.5
2022-11-15T05:53:09.474Z,10.5
2022-11-15T05:54:09.510Z,10.6
2022-11-15T05:55:19.564Z,10.6
2022-11-15T05:56:09.579Z,10.5
2022-11-15T05:57:09.704Z,10.5
2022-11-15T05:58:14.715Z,10.5
2022-11-15T05:59:09.648Z,10.5
2022-11-15T06:00:09.740Z,10.4
2022-11-15T06:01:14.722Z,10.4
2022-11-15T06:02:09.902Z,10.4
2022-11-15T06:03:09.772Z,10.4
2022-11-15T06:04:09.806Z,10.5
2022-11-15T06:05:09.868Z,10.5
2022-11-15T06:06:13.628Z,10.4
2022-11-15T06:07:10.049Z,10.4
2022-11-15T06:08:10.072Z,10.4
2022-11-15T06:09:10.120Z,10.4
2022-11-15T06:10:10.183Z,10.3
2022-11-15T06:11:10.253Z,10.4
2022-11-15T06:12:10.325Z,10.4
2022-11-15T06:13:10.424Z,10.4
2022-11-15T06:14:10.476Z,10.4
2022-11-15T06:15:15.598Z,10.3
2022-11-15T06:16:10.781Z,10.3
2022-11-15T06:17:11.528Z,10.3
2022-11-15T06:18:10.794Z,10.3
2022-11-15T06:19:10.890Z,10.2
2022-11-15T06:20:10.925Z,10.2
2022-11-15T06:21:11.002Z,10.2
2022-11-15T06:22:11.025Z,10.2
2022-11-15T06:23:11.110Z,10.2
2022-11-15T06:24:16.164Z,10.2
2022-11-15T06:25:11.234Z,10.1
2022-11-15T06:26:12.032Z,10.2
2022-11-15T06:27:11.257Z,10.2
2022-11-15T06:28:11.273Z,10.2
2022-11-15T06:29:11.304Z,10.2
2022-11-15T06:30:11.346Z,10.1
2022-11-15T06:31:11.388Z,10.1
2022-11-15T06:32:11.414Z,10.1
2022-11-15T06:33:11.438Z,10.1
2022-11-15T06:34:11.439Z,10.2
2022-11-15T06:35:11.849Z,10.3
2022-11-15T06:36:16.170Z,10.1
2022-11-15T06:37:11.685Z,10.2
2022-11-15T06:38:16.607Z,10.2
2022-11-15T06:39:11.675Z,10.2
2022-11-15T06:40:11.725Z,10.2
2022-11-15T06:41:11.728Z,10.2
2022-11-15T06:42:11.770Z,10.2
2022-11-15T06:43:11.813Z,10.1
2022-11-15T06:44:11.824Z,10.1
2022-11-15T06:45:11.862Z,10.1
2022-11-15T06:46:11.947Z,10
2022-11-15T06:47:11.907Z,10
2022-11-15T06:48:11.929Z,10.1
2022-11-15T06:49:11.934Z,10.1
2022-11-15T06:50:11.994Z,10.1
2022-11-15T06:51:12.084Z,10.1
2022-11-15T06:52:12.145Z,10
2022-11-15T06:55:52.084Z,10
2022-11-15T06:55:52.091Z,9.9
2022-11-15T06:58:09.726Z,9.9
2022-11-15T06:58:35.404Z,9.9
2022-11-15T06:59:12.358Z,10
2022-11-15T07:00:12.461Z,10
2022-11-15T07:01:13.620Z,10
2022-11-15T07:02:12.475Z,10
2022-11-15T07:03:12.621Z,10
2022-11-15T07:04:12.736Z,10
2022-11-15T07:05:12.846Z,10
2022-11-15T07:06:12.803Z,10.1
2022-11-15T07:07:13.947Z,10.1
2022-11-15T07:08:13.197Z,10.1
2022-11-15T07:09:17.509Z,10.1
2022-11-15T07:10:13.939Z,10
2022-11-15T07:11:18.448Z,10.1
2022-11-15T07:12:12.781Z,10.1
2022-11-15T07:13:12.790Z,10.1
2022-11-15T07:14:12.892Z,10
2022-11-15T07:17:17.444Z,9.9
2022-11-15T07:18:26.589Z,9.9
2022-11-15T07:19:13.137Z,9.9
2022-11-15T07:20:21.501Z,10
2022-11-15T07:21:16.430Z,10
2022-11-15T07:22:17.144Z,10
2022-11-15T07:23:23.730Z,10.1
2022-11-15T07:24:18.348Z,10.1
2022-11-15T07:25:24.173Z,10
2022-11-15T07:26:20.176Z,10
2022-11-15T07:27:13.597Z,10
2022-11-15T07:29:45.869Z,10
2022-11-15T07:30:21.894Z,10
2022-11-15T07:31:15.192Z,10
2022-11-15T07:32:23.873Z,10
2022-11-15T07:33:13.945Z,10
2022-11-15T07:34:28.808Z,9.9
2022-11-15T07:35:14.011Z,9.9
2022-11-15T07:36:19.025Z,9.9
2022-11-15T07:37:14.133Z,9.9
2022-11-15T07:38:20.471Z,10
2022-11-15T07:39:14.198Z,10
2022-11-15T07:40:15.280Z,9.9
2022-11-15T07:41:19.207Z,9.9
2022-11-15T07:42:14.824Z,10
2022-11-15T07:43:32.771Z,10
2022-11-15T07:44:18.727Z,10
2022-11-15T07:45:14.402Z,10.1
2022-11-15T07:46:34.447Z,10.1
2022-11-15T07:47:17.649Z,10.1
2022-11-15T07:48:32.110Z,10.1
2022-11-15T07:49:19.464Z,10
2022-11-15T07:50:26.952Z,10
2022-11-15T07:51:14.792Z,10
2022-11-15T07:52:20.839Z,10.1
2022-11-15T07:53:14.612Z,10.1
2022-11-15T07:54:27.022Z,10.1
2022-11-15T07:55:15.945Z,10.2
2022-11-15T07:56:36.715Z,10.3
2022-11-15T07:57:24.783Z,10.3
2022-11-15T07:58:14.756Z,10.4
2022-11-15T07:59:14.765Z,10.4
2022-11-15T08:00:14.821Z,10.5
2022-11-15T08:01:15.000Z,10.6
2022-11-15T08:02:14.963Z,10.6
2022-11-15T08:03:14.913Z,10.6
2022-11-15T08:04:14.950Z,10.6
2022-11-15T08:05:14.979Z,10.6
2022-11-15T08:06:15.003Z,10.6
2022-11-15T08:07:15.089Z,10.6
2022-11-15T08:08:15.080Z,10.6
2022-11-15T08:09:15.132Z,10.6
2022-11-15T08:10:15.199Z,10.6
2022-11-15T08:11:15.204Z,10.7
2022-11-15T08:12:15.221Z,10.6
2022-11-15T08:13:15.368Z,10.7
2022-11-15T08:14:15.290Z,10.6
2022-11-15T08:15:15.329Z,10.6
2022-11-15T08:16:15.387Z,10.6
2022-11-15T08:17:15.388Z,10.6
2022-11-15T08:18:15.406Z,10.6
2022-11-15T08:19:15.662Z,10.6
2022-11-15T08:20:15.475Z,10.6
2022-11-15T08:21:18.240Z,10.7
2022-11-15T08:22:15.602Z,10.7
2022-11-15T08:23:15.600Z,10.7
2022-11-15T08:24:15.615Z,10.7
2022-11-15T08:25:15.667Z,10.7
2022-11-15T08:26:15.669Z,10.7
2022-11-15T08:27:16.042Z,10.8
2022-11-15T08:28:21.617Z,10.8
2022-11-15T08:29:15.790Z,10.8
2022-11-15T08:30:15.887Z,10.8
2022-11-15T08:31:15.941Z,10.9
2022-11-15T08:32:16.009Z,10.9
2022-11-15T08:33:16.082Z,10.9
2022-11-15T08:34:16.193Z,10.9
2022-11-15T08:35:16.324Z,10.9
2022-11-15T08:36:16.296Z,10.9
2022-11-15T08:37:16.339Z,10.9
2022-11-15T08:38:16.430Z,10.9
2022-11-15T08:39:16.448Z,10.9
2022-11-15T08:40:16.512Z,10.9
2022-11-15T08:41:16.548Z,10.9
2022-11-15T08:42:19.726Z,10.9
2022-11-15T08:43:16.621Z,11
2022-11-15T08:44:16.749Z,11
2022-11-15T08:45:16.782Z,11
2022-11-15T08:46:16.864Z,11
2022-11-15T08:47:16.908Z,11
2022-11-15T08:48:16.927Z,11.1
2022-11-15T08:49:16.963Z,11.1
2022-11-15T08:50:17.024Z,11.1
2022-11-15T08:51:17.049Z,11.1
2022-11-15T08:52:17.053Z,11.1
2022-11-15T08:53:17.119Z,11.1
2022-11-15T08:54:17.143Z,11.1
2022-11-15T08:55:17.759Z,11.2
2022-11-15T08:56:17.193Z,11.2
2022-11-15T08:57:17.218Z,11.2
2022-11-15T08:58:17.310Z,11.2
2022-11-15T08:59:17.306Z,11.2
2022-11-15T09:00:17.350Z,11.3
2022-11-15T09:01:18.564Z,11.4
2022-11-15T09:02:17.373Z,11.4
2022-11-15T09:03:17.406Z,11.4
2022-11-15T09:04:17.458Z,11.5
2022-11-15T09:05:17.674Z,11.5
2022-11-15T09:06:17.532Z,11.5
2022-11-15T09:07:17.628Z,11.4
2022-11-15T09:08:46.863Z,11.5
2022-11-15T09:09:17.624Z,11.5
2022-11-15T09:10:17.672Z,11.5
2022-11-15T09:11:17.710Z,11.6
2022-11-15T09:12:17.734Z,11.7
2022-11-15T09:13:17.754Z,11.7
2022-11-15T09:14:17.798Z,11.6
2022-11-15T09:15:17.860Z,11.7
2022-11-15T09:16:17.898Z,11.8
2022-11-15T09:17:21.758Z,11.8
2022-11-15T09:18:17.944Z,11.8
2022-11-15T09:19:17.958Z,11.8
2022-11-15T09:20:18.014Z,11.8
2022-11-15T09:21:18.027Z,11.9
2022-11-15T09:22:18.060Z,12
2022-11-15T09:23:18.093Z,11.9
2022-11-15T09:24:18.143Z,12
2022-11-15T09:25:18.160Z,12.1
2022-11-15T09:26:18.210Z,12.1
2022-11-15T09:27:18.236Z,12.2
2022-11-15T09:28:18.266Z,12.3
2022-11-15T09:29:18.316Z,12.4
2022-11-15T09:30:18.366Z,12.3
2022-11-15T09:31:21.070Z,12.3
2022-11-15T09:32:18.451Z,12.4
2022-11-15T09:33:18.455Z,12.7
2022-11-15T09:34:18.479Z,12.7
2022-11-15T09:35:18.526Z,12.8
2022-11-15T09:36:18.555Z,13
2022-11-15T09:37:18.586Z,12.8
2022-11-15T09:38:18.632Z,12.9
2022-11-15T09:39:18.670Z,13.1
2022-11-15T09:40:18.698Z,13.4
2022-11-15T09:41:18.756Z,13.3
2022-11-15T09:42:18.829Z,13.5
2022-11-15T09:43:18.857Z,13.7
2022-11-15T09:44:25.215Z,13.6
2022-11-15T09:45:19.131Z,13.5
2022-11-15T09:46:19.070Z,13.7
2022-11-15T09:47:19.142Z,13.9
2022-11-15T09:48:19.231Z,13.8
2022-11-15T09:49:19.300Z,13.7
2022-11-15T09:50:19.872Z,13.7
2022-11-15T09:51:19.433Z,13.8
2022-11-15T09:52:19.520Z,13.9
2022-11-15T09:53:21.935Z,13.8
2022-11-15T09:55:19.683Z,13.7
2022-11-15T09:56:19.739Z,13.8
2022-11-15T09:57:19.781Z,13.7
2022-11-15T09:58:19.845Z,13.6
2022-11-15T09:59:19.910Z,13.5
2022-11-15T10:01:20.016Z,13.6
2022-11-15T10:02:19.998Z,13.7
2022-11-15T10:03:20.043Z,13.8
2022-11-15T10:04:20.097Z,14.1
2022-11-15T10:05:20.148Z,14.3
2022-11-15T10:06:20.161Z,14.3
2022-11-15T10:07:20.245Z,14.2
2022-11-15T10:08:20.195Z,14.1
2022-11-15T10:09:23.733Z,14
2022-11-15T10:10:20.303Z,14
2022-11-15T10:11:37.587Z,14.1
2022-11-15T10:12:20.332Z,14.1
2022-11-15T10:13:20.368Z,13.9
2022-11-15T10:14:20.418Z,13.8
2022-11-15T10:15:20.448Z,13.9
2022-11-15T10:16:20.458Z,13.9
2022-11-15T10:17:20.502Z,13.8
2022-11-15T10:18:20.530Z,13.8
2022-11-15T10:19:20.734Z,13.7
2022-11-15T10:20:20.669Z,13.6
2022-11-15T10:21:20.665Z,13.6
2022-11-15T10:22:20.713Z,13.6
2022-11-15T10:23:20.709Z,13.7
2022-11-15T10:24:20.778Z,13.8
2022-11-15T10:25:20.807Z,14.1
2022-11-15T10:26:20.827Z,14.4
2022-11-15T10:27:20.876Z,14.2
2022-11-15T10:28:20.921Z,14.2
2022-11-15T10:29:26.399Z,14.3
2022-11-15T10:30:21.015Z,14.4
2022-11-15T10:31:21.007Z,14.6
2022-11-15T10:32:21.039Z,14.7
2022-11-15T10:33:21.068Z,14.3
2022-11-15T10:34:21.110Z,14.4
2022-11-15T10:35:21.150Z,14.5
2022-11-15T10:36:21.241Z,14.5
2022-11-15T10:37:21.224Z,14.6
2022-11-15T10:38:21.251Z,14.6
2022-11-15T10:39:21.283Z,14.7
2022-11-15T10:40:21.370Z,14.6
2022-11-15T10:41:21.352Z,14.7
2022-11-15T10:42:21.351Z,14.8
2022-11-15T10:43:21.373Z,14.9
2022-11-15T10:44:26.449Z,14.8
2022-11-15T10:45:21.458Z,14.7
2022-11-15T10:46:44.887Z,14.8
2022-11-15T10:47:21.556Z,15
2022-11-15T10:48:21.576Z,14.9
2022-11-15T10:49:21.626Z,14.9
2022-11-15T10:50:21.701Z,14.7
2022-11-15T10:51:21.666Z,14.8
2022-11-15T10:52:21.743Z,14.6
2022-11-15T10:53:21.848Z,14.6
2022-11-15T10:54:21.892Z,14.6
2022-11-15T10:55:21.991Z,14.7
2022-11-15T10:56:22.051Z,14.9
2022-11-15T10:57:22.109Z,15.1
2022-11-15T10:58:22.176Z,15.4
2022-11-15T10:59:22.254Z,15.4
2022-11-15T11:00:22.366Z,15.3
2022-11-15T11:01:22.483Z,15.2
2022-11-15T11:02:22.479Z,15.3
2022-11-15T11:03:22.519Z,15.3
2022-11-15T11:04:22.582Z,15.3
2022-11-15T11:05:22.694Z,14.7
2022-11-15T11:06:22.761Z,14.6
2022-11-15T11:07:22.846Z,14.5
2022-11-15T11:08:22.844Z,14.6
2022-11-15T11:09:22.851Z,14.9
2022-11-15T11:10:50.224Z,14.8
2022-11-15T11:11:22.942Z,14.8
2022-11-15T11:12:32.754Z,14.9
2022-11-15T11:14:18.478Z,15
2022-11-15T11:14:23.430Z,15
2022-11-15T11:15:23.074Z,15.1
2022-11-15T11:16:23.158Z,15
2022-11-15T11:17:23.119Z,15.2
2022-11-15T11:18:23.183Z,15.2
2022-11-15T11:19:23.219Z,15.2
2022-11-15T11:20:23.238Z,15.3
2022-11-15T11:21:27.169Z,15.1
2022-11-15T11:22:23.299Z,15
2022-11-15T11:23:23.338Z,15.1
2022-11-15T11:24:23.379Z,15.1
2022-11-15T11:25:23.460Z,15.1
2022-11-15T11:26:23.451Z,14.9
2022-11-15T11:27:23.444Z,14.7
2022-11-15T11:28:23.448Z,14.5
2022-11-15T11:29:23.490Z,14.3
2022-11-15T11:30:23.561Z,14.4
2022-11-15T11:31:23.656Z,14.7
2022-11-15T11:32:23.713Z,14.8
2022-11-15T11:33:23.682Z,14.8
2022-11-15T11:34:23.731Z,14.7
2022-11-15T11:35:23.775Z,14.5
2022-11-15T11:36:23.805Z,14.4
2022-11-15T11:37:23.858Z,14.5
2022-11-15T11:38:23.872Z,14.7
2022-11-15T11:39:23.881Z,14.8
2022-11-15T11:40:23.931Z,14.9
2022-11-15T11:41:24.006Z,15
2022-11-15T11:42:23.980Z,14.9
2022-11-15T11:43:24.040Z,15
2022-11-15T11:44:24.048Z,15.2
2022-11-15T11:45:24.086Z,14.9
2022-11-15T11:46:24.128Z,14.5
2022-11-15T11:47:24.164Z,14.2
2022-11-15T11:48:24.212Z,14.2
2022-11-15T11:49:24.217Z,14
2022-11-15T11:50:24.279Z,14.1
2022-11-15T11:51:24.291Z,14.4
2022-11-15T11:52:24.307Z,14.9
2022-11-15T11:53:24.326Z,15.2
2022-11-15T11:54:24.344Z,15.2
2022-11-15T11:55:24.477Z,15.2
2022-11-15T11:56:24.539Z,15.2
2022-11-15T11:57:24.484Z,15
2022-11-15T11:58:24.506Z,14.7
2022-11-15T11:59:24.542Z,14.9
2022-11-15T12:00:24.581Z,15.1
2022-11-15T12:01:24.631Z,15.2
2022-11-15T12:02:24.733Z,15.1
2022-11-15T12:03:24.677Z,15.2
2022-11-15T12:04:24.759Z,15.2
2022-11-15T12:05:24.818Z,15.1
2022-11-15T12:06:24.945Z,14.8
2022-11-15T12:07:24.992Z,14.8
2022-11-15T12:08:25.045Z,14.8
2022-11-15T12:09:25.080Z,14.4
2022-11-15T12:10:25.164Z,14.5
2022-11-15T12:11:25.597Z,14.6
2022-11-15T12:12:25.296Z,14.4
2022-11-15T12:13:25.350Z,14.3
2022-11-15T12:14:25.372Z,13.9
2022-11-15T12:15:25.455Z,13.9
2022-11-15T12:16:25.512Z,13.8
2022-11-15T12:17:25.545Z,13.8
2022-11-15T12:18:25.599Z,13.6
2022-11-15T12:19:25.648Z,13.6
2022-11-15T12:20:25.706Z,13.6
2022-11-15T12:21:28.610Z,13.6
2022-11-15T12:22:25.802Z,13.6
2022-11-15T12:23:25.870Z,13.5
2022-11-15T12:24:25.903Z,13.6
2022-11-15T12:25:25.928Z,13.6
2022-11-15T12:26:25.982Z,13.4
2022-11-15T12:27:26.686Z,13.5
2022-11-15T12:28:26.079Z,13.5
2022-11-15T12:29:26.097Z,13.5
2022-11-15T12:30:26.112Z,13.6
2022-11-15T12:31:26.181Z,13.6
2022-11-15T12:32:26.211Z,13.6
2022-11-15T12:33:26.203Z,13.6
2022-11-15T12:34:26.250Z,13.7
2022-11-15T12:35:26.280Z,13.6
2022-11-15T12:36:26.318Z,13.6
2022-11-15T12:37:26.377Z,13.5
2022-11-15T12:38:26.415Z,13.3
2022-11-15T12:39:26.407Z,13.3
2022-11-15T12:40:26.450Z,13.3
2022-11-15T12:41:26.485Z,13.3
2022-11-15T12:42:26.520Z,13.3
2022-11-15T12:43:26.529Z,13.2
2022-11-15T12:44:26.600Z,13.2
2022-11-15T12:45:26.620Z,13.2
2022-11-15T12:46:26.735Z,13.3
2022-11-15T12:47:26.701Z,13.2
2022-11-15T12:48:26.728Z,13.1
2022-11-15T12:49:26.746Z,13.1
2022-11-15T12:50:26.757Z,13.1
2022-11-15T12:51:26.860Z,13.2
2022-11-15T12:52:26.840Z,13.2
2022-11-15T12:53:26.872Z,13.2
2022-11-15T12:54:26.928Z,13.1
2022-11-15T12:55:26.941Z,13.1
2022-11-15T12:56:26.992Z,13.1
2022-11-15T12:57:27.009Z,13.1
2022-11-15T12:58:27.017Z,13.1
2022-11-15T12:59:27.078Z,13
2022-11-15T13:00:27.137Z,13
2022-11-15T13:01:27.211Z,13
2022-11-15T13:02:27.157Z,13.1
2022-11-15T13:03:27.210Z,13.1
2022-11-15T13:04:27.218Z,13.1
2022-11-15T13:18:11.807Z,13
2022-11-15T13:18:27.844Z,13
2022-11-15T13:19:28.039Z,13.1
2022-11-15T13:20:28.027Z,13.1
2022-11-15T13:21:28.081Z,13
2022-11-15T13:22:28.160Z,13
2022-11-15T13:23:28.208Z,13
2022-11-15T13:24:28.266Z,13
2022-11-15T13:25:28.268Z,13.1
2022-11-15T13:26:31.788Z,13.1
2022-11-15T13:27:28.860Z,13
2022-11-15T13:28:28.481Z,13
2022-11-15T13:29:28.542Z,13
2022-11-15T13:30:28.537Z,13.1
2022-11-15T13:31:28.617Z,13
2022-11-15T13:32:28.652Z,13
2022-11-15T13:33:33.035Z,13
2022-11-15T13:34:50.366Z,13
2022-11-15T13:35:28.835Z,13
2022-11-15T13:36:28.840Z,12.9
2022-11-15T13:37:28.866Z,12.9
2022-11-15T13:38:29.110Z,12.9
2022-11-15T13:39:28.938Z,12.9
2022-11-15T13:40:28.951Z,12.9
2022-11-15T13:41:28.987Z,12.9
2022-11-15T13:42:29.106Z,12.9
2022-11-15T13:43:29.127Z,12.9
2022-11-15T13:44:29.111Z,12.9
2022-11-15T13:45:29.332Z,12.9
2022-11-15T13:46:29.161Z,13